sensor_id;sensor_type;location;lat;lon;timestamp;temperature;humidity
16767;DHT22;8501;49.926;8.404;2023-05-15T00:01:30;15.20;99.90
16767;DHT22;8501;49.926;8.404;2023-05-15T00:03:55;15.20;99.90
16767;DHT22;8501;49.926;8.404;2023-05-15T00:06:21;15.20;99.90
16767;DHT22;8501;49.926;8.404;2023-05-15T00:08:47;15.10;99.90
16767;DHT22;8501;49.926;8.404;2023-05-15T00:11:12;14.90;99.90
16767;DHT22;8501;49.926;8.404;2023-05-15T00:13:38;14.90;99.90
16767;DHT22;8501;49.926;8.404;2023-05-15T00:16:06;14.90;99.90
16767;DHT22;8501;49.926;8.404;2023-05-15T00:18:32;14.90;99.90
16767;DHT22;8501;49.926;8.404;2023-05-15T00:20:58;14.90;99.90
16767;DHT22;8501;49.926;8.404;2023-05-15T00:23:23;14.90;99.90
16767;DHT22;8501;49.926;8.404;2023-05-15T00:25:49;14.80;99.90
16767;DHT22;8501;49.926;8.404;2023-05-15T00:28:15;14.90;99.90
16767;DHT22;8501;49.926;8.404;2023-05-15T00:30:40;14.90;99.90
16767;DHT22;8501;49.926;8.404;2023-05-15T00:33:06;14.70;99.90
16767;DHT22;8501;49.926;8.404;2023-05-15T00:35:32;14.70;99.90
16767;DHT22;8501;49.926;8.404;2023-05-15T00:37:57;14.70;99.90
16767;DHT22;8501;49.926;8.404;2023-05-15T00:40:24;14.70;99.90
16767;DHT22;8501;49.926;8.404;2023-05-15T00:42:51;14.60;99.90
16767;DHT22;8501;49.926;8.404;2023-05-15T00:45:18;14.50;99.90
16767;DHT22;8501;49.926;8.404;2023-05-15T00:47:44;14.50;99.90
16767;DHT22;8501;49.926;8.404;2023-05-15T00:50:11;14.50;99.90
16767;DHT22;8501;49.926;8.404;2023-05-15T00:52:37;14.60;99.90
16767;DHT22;8501;49.926;8.404;2023-05-15T00:55:03;14.60;99.90
16767;DHT22;8501;49.926;8.404;2023-05-15T00:57:30;14.50;99.90
16767;DHT22;8501;49.926;8.404;2023-05-15T00:59:56;14.50;99.90
16767;DHT22;8501;49.926;8.404;2023-05-15T01:02:22;14.40;99.90
16767;DHT22;8501;49.926;8.404;2023-05-15T01:04:48;14.40;99.90
16767;DHT22;8501;49.926;8.404;2023-05-15T01:07:14;14.40;99.90
16767;DHT22;8501;49.926;8.404;2023-05-15T01:09:43;14.40;99.90
16767;DHT22;8501;49.926;8.404;2023-05-15T01:12:09;14.40;99.90
16767;DHT22;8501;49.926;8.404;2023-05-15T01:14:35;14.40;99.90
16767;DHT22;8501;49.926;8.404;2023-05-15T01:17:01;14.30;99.90
16767;DHT22;8501;49.926;8.404;2023-05-15T01:19:27;14.40;99.90
16767;DHT22;8501;49.926;8.404;2023-05-15T01:22:43;14.40;99.90
16767;DHT22;8501;49.926;8.404;2023-05-15T01:27:50;14.20;99.90
16767;DHT22;8501;49.926;8.404;2023-05-15T01:30:27;14.00;99.90
16767;DHT22;8501;49.926;8.404;2023-05-15T01:38:52;14.10;99.90
16767;DHT22;8501;49.926;8.404;2023-05-15T01:41:27;14.10;99.90
16767;DHT22;8501;49.926;8.404;2023-05-15T01:44:21;14.10;99.90
16767;DHT22;8501;49.926;8.404;2023-05-15T01:46:51;14.10;99.90
16767;DHT22;8501;49.926;8.404;2023-05-15T01:49:18;14.10;99.90
16767;DHT22;8501;49.926;8.404;2023-05-15T01:51:47;14.00;99.90
16767;DHT22;8501;49.926;8.404;2023-05-15T01:54:14;13.80;99.90
16767;DHT22;8501;49.926;8.404;2023-05-15T01:56:42;13.70;99.90
16767;DHT22;8501;49.926;8.404;2023-05-15T01:59:11;13.70;99.90
16767;DHT22;8501;49.926;8.404;2023-05-15T02:01:38;13.70;99.90
16767;DHT22;8501;49.926;8.404;2023-05-15T02:04:05;13.70;99.90
16767;DHT22;8501;49.926;8.404;2023-05-15T02:06:32;13.60;99.90
16767;DHT22;8501;49.926;8.404;2023-05-15T02:09:00;13.50;99.90
16767;DHT22;8501;49.926;8.404;2023-05-15T02:11:26;13.50;99.90
16767;DHT22;8501;49.926;8.404;2023-05-15T02:13:54;13.50;99.90
16767;DHT22;8501;49.926;8.404;2023-05-15T02:16:22;13.50;99.90
16767;DHT22;8501;49.926;8.404;2023-05-15T02:18:48;13.50;99.90
16767;DHT22;8501;49.926;8.404;2023-05-15T02:21:14;13.40;99.90
16767;DHT22;8501;49.926;8.404;2023-05-15T02:23:40;13.50;99.90
16767;DHT22;8501;49.926;8.404;2023-05-15T02:31:36;13.30;99.90
16767;DHT22;8501;49.926;8.404;2023-05-15T02:36:39;13.20;99.90
16767;DHT22;8501;49.926;8.404;2023-05-15T02:39:06;13.30;99.90
16767;DHT22;8501;49.926;8.404;2023-05-15T02:41:35;13.30;99.90
16767;DHT22;8501;49.926;8.404;2023-05-15T02:44:01;13.30;99.90
16767;DHT22;8501;49.926;8.404;2023-05-15T02:46:28;13.30;99.90
16767;DHT22;8501;49.926;8.404;2023-05-15T02:48:54;13.20;99.90
16767;DHT22;8501;49.926;8.404;2023-05-15T02:51:21;13.20;99.90
16767;DHT22;8501;49.926;8.404;2023-05-15T02:53:48;13.10;99.90
16767;DHT22;8501;49.926;8.404;2023-05-15T02:56:14;13.20;99.90
16767;DHT22;8501;49.926;8.404;2023-05-15T02:58:39;13.00;99.90
16767;DHT22;8501;49.926;8.404;2023-05-15T03:01:05;13.10;99.90
16767;DHT22;8501;49.926;8.404;2023-05-15T03:03:31;13.00;99.90
16767;DHT22;8501;49.926;8.404;2023-05-15T03:05:57;13.00;99.90
16767;DHT22;8501;49.926;8.404;2023-05-15T03:08:22;13.00;99.90
16767;DHT22;8501;49.926;8.404;2023-05-15T03:10:48;13.00;99.90
16767;DHT22;8501;49.926;8.404;2023-05-15T03:13:13;12.90;99.90
16767;DHT22;8501;49.926;8.404;2023-05-15T03:15:39;12.80;99.90
16767;DHT22;8501;49.926;8.404;2023-05-15T03:18:04;13.00;99.90
16767;DHT22;8501;49.926;8.404;2023-05-15T03:20:30;12.80;99.90
16767;DHT22;8501;49.926;8.404;2023-05-15T03:22:55;12.80;99.90
16767;DHT22;8501;49.926;8.404;2023-05-15T03:25:21;12.80;99.90
16767;DHT22;8501;49.926;8.404;2023-05-15T03:27:46;12.80;99.90
16767;DHT22;8501;49.926;8.404;2023-05-15T03:30:12;12.80;99.90
16767;DHT22;8501;49.926;8.404;2023-05-15T03:32:38;12.80;99.90
16767;DHT22;8501;49.926;8.404;2023-05-15T03:35:04;12.70;99.90
16767;DHT22;8501;49.926;8.404;2023-05-15T03:37:29;12.70;99.90
16767;DHT22;8501;49.926;8.404;2023-05-15T03:39:55;12.80;99.90
16767;DHT22;8501;49.926;8.404;2023-05-15T03:42:20;12.80;99.90
16767;DHT22;8501;49.926;8.404;2023-05-15T03:44:48;12.80;99.90
16767;DHT22;8501;49.926;8.404;2023-05-15T03:47:14;12.80;99.90
16767;DHT22;8501;49.926;8.404;2023-05-15T03:49:40;12.60;99.90
16767;DHT22;8501;49.926;8.404;2023-05-15T03:52:06;12.70;99.90
16767;DHT22;8501;49.926;8.404;2023-05-15T03:54:32;12.70;99.90
16767;DHT22;8501;49.926;8.404;2023-05-15T03:56:58;12.70;99.90
16767;DHT22;8501;49.926;8.404;2023-05-15T03:59:23;12.70;99.90
16767;DHT22;8501;49.926;8.404;2023-05-15T04:01:49;12.60;99.90
16767;DHT22;8501;49.926;8.404;2023-05-15T04:04:15;12.60;99.90
16767;DHT22;8501;49.926;8.404;2023-05-15T04:06:40;12.50;99.90
16767;DHT22;8501;49.926;8.404;2023-05-15T04:09:06;12.50;99.90
16767;DHT22;8501;49.926;8.404;2023-05-15T04:11:31;12.40;99.90
16767;DHT22;8501;49.926;8.404;2023-05-15T04:13:59;12.50;99.90
16767;DHT22;8501;49.926;8.404;2023-05-15T04:16:24;12.50;99.90
16767;DHT22;8501;49.926;8.404;2023-05-15T04:18:50;12.50;99.90
16767;DHT22;8501;49.926;8.404;2023-05-15T04:21:15;12.40;99.90
16767;DHT22;8501;49.926;8.404;2023-05-15T04:23:41;12.40;99.90
16767;DHT22;8501;49.926;8.404;2023-05-15T04:26:07;12.40;99.90
16767;DHT22;8501;49.926;8.404;2023-05-15T04:28:33;12.40;99.90
16767;DHT22;8501;49.926;8.404;2023-05-15T04:30:59;12.50;99.90
16767;DHT22;8501;49.926;8.404;2023-05-15T04:33:25;12.50;99.90
16767;DHT22;8501;49.926;8.404;2023-05-15T04:35:51;12.50;99.90
16767;DHT22;8501;49.926;8.404;2023-05-15T04:38:17;12.50;99.90
16767;DHT22;8501;49.926;8.404;2023-05-15T04:40:43;12.40;99.90
16767;DHT22;8501;49.926;8.404;2023-05-15T04:43:09;12.40;99.90
16767;DHT22;8501;49.926;8.404;2023-05-15T04:45:34;12.40;99.90
16767;DHT22;8501;49.926;8.404;2023-05-15T04:48:00;12.50;99.90
16767;DHT22;8501;49.926;8.404;2023-05-15T04:50:26;12.40;99.90
16767;DHT22;8501;49.926;8.404;2023-05-15T04:52:51;12.60;99.90
16767;DHT22;8501;49.926;8.404;2023-05-15T04:55:17;12.70;99.90
16767;DHT22;8501;49.926;8.404;2023-05-15T04:57:45;12.80;99.90
16767;DHT22;8501;49.926;8.404;2023-05-15T05:00:11;12.80;99.90
16767;DHT22;8501;49.926;8.404;2023-05-15T05:02:38;12.90;99.90
16767;DHT22;8501;49.926;8.404;2023-05-15T05:05:05;13.00;99.90
16767;DHT22;8501;49.926;8.404;2023-05-15T05:07:32;12.90;99.90
16767;DHT22;8501;49.926;8.404;2023-05-15T05:09:58;12.90;99.90
16767;DHT22;8501;49.926;8.404;2023-05-15T05:12:23;13.00;99.90
16767;DHT22;8501;49.926;8.404;2023-05-15T05:14:49;13.00;99.90
16767;DHT22;8501;49.926;8.404;2023-05-15T05:17:14;13.10;99.90
16767;DHT22;8501;49.926;8.404;2023-05-15T05:19:40;13.20;99.90
16767;DHT22;8501;49.926;8.404;2023-05-15T05:22:06;13.20;99.90
16767;DHT22;8501;49.926;8.404;2023-05-15T05:24:33;13.30;99.90
16767;DHT22;8501;49.926;8.404;2023-05-15T05:27:00;13.30;99.90
16767;DHT22;8501;49.926;8.404;2023-05-15T05:29:26;13.30;99.90
16767;DHT22;8501;49.926;8.404;2023-05-15T05:31:52;13.40;99.90
16767;DHT22;8501;49.926;8.404;2023-05-15T05:34:18;13.40;99.90
16767;DHT22;8501;49.926;8.404;2023-05-15T05:36:44;13.50;99.90
16767;DHT22;8501;49.926;8.404;2023-05-15T05:39:09;13.60;99.90
16767;DHT22;8501;49.926;8.404;2023-05-15T05:41:35;13.60;99.90
16767;DHT22;8501;49.926;8.404;2023-05-15T05:44:01;13.60;99.90
16767;DHT22;8501;49.926;8.404;2023-05-15T05:46:26;13.60;99.90
16767;DHT22;8501;49.926;8.404;2023-05-15T05:48:52;13.60;99.90
16767;DHT22;8501;49.926;8.404;2023-05-15T05:51:18;13.60;99.90
16767;DHT22;8501;49.926;8.404;2023-05-15T05:53:43;13.60;99.90
16767;DHT22;8501;49.926;8.404;2023-05-15T05:56:09;13.70;99.90
16767;DHT22;8501;49.926;8.404;2023-05-15T05:58:34;13.70;99.90
16767;DHT22;8501;49.926;8.404;2023-05-15T06:01:00;13.70;99.90
16767;DHT22;8501;49.926;8.404;2023-05-15T06:03:26;13.70;99.90
16767;DHT22;8501;49.926;8.404;2023-05-15T06:05:52;13.90;99.90
16767;DHT22;8501;49.926;8.404;2023-05-15T06:08:18;13.90;99.90
16767;DHT22;8501;49.926;8.404;2023-05-15T06:10:46;14.00;99.90
16767;DHT22;8501;49.926;8.404;2023-05-15T06:13:11;14.00;99.90
16767;DHT22;8501;49.926;8.404;2023-05-15T06:15:39;14.00;99.90
16767;DHT22;8501;49.926;8.404;2023-05-15T06:18:05;14.00;99.90
16767;DHT22;8501;49.926;8.404;2023-05-15T06:20:31;14.10;99.90
16767;DHT22;8501;49.926;8.404;2023-05-15T06:22:56;14.10;99.90
16767;DHT22;8501;49.926;8.404;2023-05-15T06:25:22;14.10;99.90
16767;DHT22;8501;49.926;8.404;2023-05-15T06:27:48;14.20;99.90
16767;DHT22;8501;49.926;8.404;2023-05-15T06:30:13;14.20;99.90
16767;DHT22;8501;49.926;8.404;2023-05-15T06:32:40;14.20;99.90
16767;DHT22;8501;49.926;8.404;2023-05-15T06:35:07;14.30;99.90
16767;DHT22;8501;49.926;8.404;2023-05-15T06:37:32;14.40;99.90
16767;DHT22;8501;49.926;8.404;2023-05-15T06:39:58;14.40;99.90
16767;DHT22;8501;49.926;8.404;2023-05-15T06:42:24;14.50;99.90
16767;DHT22;8501;49.926;8.404;2023-05-15T06:44:49;14.50;99.90
16767;DHT22;8501;49.926;8.404;2023-05-15T06:47:15;14.50;99.90
16767;DHT22;8501;49.926;8.404;2023-05-15T06:49:41;14.50;99.90
16767;DHT22;8501;49.926;8.404;2023-05-15T06:52:06;14.60;99.90
16767;DHT22;8501;49.926;8.404;2023-05-15T06:54:32;14.60;99.90
16767;DHT22;8501;49.926;8.404;2023-05-15T06:56:58;14.80;99.90
16767;DHT22;8501;49.926;8.404;2023-05-15T06:59:23;14.80;99.90
16767;DHT22;8501;49.926;8.404;2023-05-15T07:01:49;14.90;99.90
16767;DHT22;8501;49.926;8.404;2023-05-15T07:04:15;14.90;99.90
16767;DHT22;8501;49.926;8.404;2023-05-15T07:06:40;15.10;99.90
16767;DHT22;8501;49.926;8.404;2023-05-15T07:09:06;15.20;99.90
16767;DHT22;8501;49.926;8.404;2023-05-15T07:11:32;15.30;99.90
16767;DHT22;8501;49.926;8.404;2023-05-15T07:14:02;15.30;99.90
16767;DHT22;8501;49.926;8.404;2023-05-15T07:16:27;15.40;99.90
16767;DHT22;8501;49.926;8.404;2023-05-15T07:18:53;15.50;99.90
16767;DHT22;8501;49.926;8.404;2023-05-15T07:21:18;15.60;99.90
16767;DHT22;8501;49.926;8.404;2023-05-15T07:23:44;15.60;99.90
16767;DHT22;8501;49.926;8.404;2023-05-15T07:26:12;15.70;99.90
16767;DHT22;8501;49.926;8.404;2023-05-15T07:28:37;15.80;99.90
16767;DHT22;8501;49.926;8.404;2023-05-15T07:31:03;15.80;99.90
16767;DHT22;8501;49.926;8.404;2023-05-15T07:33:29;15.90;99.90
16767;DHT22;8501;49.926;8.404;2023-05-15T07:35:54;15.90;99.90
16767;DHT22;8501;49.926;8.404;2023-05-15T07:38:20;15.90;99.90
16767;DHT22;8501;49.926;8.404;2023-05-15T07:40:45;16.00;99.90
16767;DHT22;8501;49.926;8.404;2023-05-15T07:43:11;16.10;99.90
16767;DHT22;8501;49.926;8.404;2023-05-15T07:45:37;16.10;99.90
16767;DHT22;8501;49.926;8.404;2023-05-15T07:48:16;16.10;99.90
16767;DHT22;8501;49.926;8.404;2023-05-15T07:50:43;16.00;99.90
16767;DHT22;8501;49.926;8.404;2023-05-15T07:53:09;16.30;99.90
16767;DHT22;8501;49.926;8.404;2023-05-15T07:55:35;16.40;99.90
16767;DHT22;8501;49.926;8.404;2023-05-15T07:58:01;16.50;99.90
16767;DHT22;8501;49.926;8.404;2023-05-15T08:00:26;16.50;99.90
16767;DHT22;8501;49.926;8.404;2023-05-15T08:02:52;16.60;99.90
16767;DHT22;8501;49.926;8.404;2023-05-15T08:05:17;16.60;99.90
16767;DHT22;8501;49.926;8.404;2023-05-15T08:07:43;16.60;99.90
16767;DHT22;8501;49.926;8.404;2023-05-15T08:10:09;16.70;99.90
16767;DHT22;8501;49.926;8.404;2023-05-15T08:12:35;16.70;99.90
16767;DHT22;8501;49.926;8.404;2023-05-15T08:15:00;16.70;99.90
16767;DHT22;8501;49.926;8.404;2023-05-15T08:17:26;16.70;99.90
16767;DHT22;8501;49.926;8.404;2023-05-15T08:19:52;16.90;99.90
16767;DHT22;8501;49.926;8.404;2023-05-15T08:22:18;16.80;99.90
16767;DHT22;8501;49.926;8.404;2023-05-15T08:24:44;16.80;99.90
16767;DHT22;8501;49.926;8.404;2023-05-15T08:27:09;16.80;99.90
16767;DHT22;8501;49.926;8.404;2023-05-15T08:29:35;16.90;99.90
16767;DHT22;8501;49.926;8.404;2023-05-15T08:32:01;16.90;99.90
16767;DHT22;8501;49.926;8.404;2023-05-15T08:34:28;17.00;99.90
16767;DHT22;8501;49.926;8.404;2023-05-15T08:36:53;17.10;99.90
16767;DHT22;8501;49.926;8.404;2023-05-15T08:39:20;17.10;99.90
16767;DHT22;8501;49.926;8.404;2023-05-15T08:42:01;17.20;99.90
16767;DHT22;8501;49.926;8.404;2023-05-15T08:44:27;17.40;99.90
16767;DHT22;8501;49.926;8.404;2023-05-15T08:46:53;17.50;99.90
16767;DHT22;8501;49.926;8.404;2023-05-15T08:52:10;17.60;99.90
16767;DHT22;8501;49.926;8.404;2023-05-15T08:54:38;17.70;99.90
16767;DHT22;8501;49.926;8.404;2023-05-15T08:57:04;17.70;99.90
16767;DHT22;8501;49.926;8.404;2023-05-15T08:59:30;17.70;99.90
16767;DHT22;8501;49.926;8.404;2023-05-15T09:01:56;17.80;99.90
16767;DHT22;8501;49.926;8.404;2023-05-15T09:04:21;17.80;99.90
16767;DHT22;8501;49.926;8.404;2023-05-15T09:06:47;18.00;99.90
16767;DHT22;8501;49.926;8.404;2023-05-15T09:09:13;18.10;99.90
16767;DHT22;8501;49.926;8.404;2023-05-15T09:11:46;18.20;99.90
16767;DHT22;8501;49.926;8.404;2023-05-15T09:14:12;18.20;99.90
16767;DHT22;8501;49.926;8.404;2023-05-15T09:16:38;18.20;99.90
16767;DHT22;8501;49.926;8.404;2023-05-15T09:19:06;18.30;99.90
16767;DHT22;8501;49.926;8.404;2023-05-15T09:21:33;18.50;99.90
16767;DHT22;8501;49.926;8.404;2023-05-15T09:24:23;18.50;99.90
16767;DHT22;8501;49.926;8.404;2023-05-15T09:27:04;18.60;99.90
16767;DHT22;8501;49.926;8.404;2023-05-15T09:29:32;18.70;99.90
16767;DHT22;8501;49.926;8.404;2023-05-15T09:32:02;18.90;99.90
16767;DHT22;8501;49.926;8.404;2023-05-15T09:34:32;19.00;99.90
16767;DHT22;8501;49.926;8.404;2023-05-15T09:37:02;19.10;99.90
16767;DHT22;8501;49.926;8.404;2023-05-15T09:39:27;19.20;99.90
16767;DHT22;8501;49.926;8.404;2023-05-15T09:41:53;19.30;99.90
16767;DHT22;8501;49.926;8.404;2023-05-15T09:44:29;19.20;99.90
16767;DHT22;8501;49.926;8.404;2023-05-15T09:46:56;19.20;99.90
16767;DHT22;8501;49.926;8.404;2023-05-15T09:49:22;19.30;99.90
16767;DHT22;8501;49.926;8.404;2023-05-15T09:51:48;19.30;99.90
16767;DHT22;8501;49.926;8.404;2023-05-15T09:54:16;19.20;99.90
16767;DHT22;8501;49.926;8.404;2023-05-15T09:56:43;19.30;99.90
16767;DHT22;8501;49.926;8.404;2023-05-15T09:59:13;19.30;99.90
16767;DHT22;8501;49.926;8.404;2023-05-15T10:01:42;19.30;99.90
16767;DHT22;8501;49.926;8.404;2023-05-15T10:04:09;19.50;99.90
16767;DHT22;8501;49.926;8.404;2023-05-15T10:06:37;19.70;99.90
16767;DHT22;8501;49.926;8.404;2023-05-15T10:09:03;19.70;99.90
16767;DHT22;8501;49.926;8.404;2023-05-15T10:11:29;19.80;99.90
16767;DHT22;8501;49.926;8.404;2023-05-15T10:13:57;19.90;99.90
16767;DHT22;8501;49.926;8.404;2023-05-15T10:16:23;19.90;99.90
16767;DHT22;8501;49.926;8.404;2023-05-15T10:18:50;19.90;99.90
16767;DHT22;8501;49.926;8.404;2023-05-15T10:21:19;19.90;99.90
16767;DHT22;8501;49.926;8.404;2023-05-15T10:23:46;19.90;99.90
16767;DHT22;8501;49.926;8.404;2023-05-15T10:26:20;20.10;99.90
16767;DHT22;8501;49.926;8.404;2023-05-15T10:28:47;20.00;99.90
16767;DHT22;8501;49.926;8.404;2023-05-15T10:31:15;19.90;99.90
16767;DHT22;8501;49.926;8.404;2023-05-15T10:33:41;20.10;99.90
16767;DHT22;8501;49.926;8.404;2023-05-15T10:36:07;20.10;99.90
16767;DHT22;8501;49.926;8.404;2023-05-15T10:38:34;20.20;99.90
16767;DHT22;8501;49.926;8.404;2023-05-15T10:41:01;20.30;99.90
16767;DHT22;8501;49.926;8.404;2023-05-15T10:43:29;20.30;99.90
16767;DHT22;8501;49.926;8.404;2023-05-15T10:45:55;20.30;99.90
16767;DHT22;8501;49.926;8.404;2023-05-15T10:48:22;20.20;99.90
16767;DHT22;8501;49.926;8.404;2023-05-15T10:50:48;20.30;99.90
16767;DHT22;8501;49.926;8.404;2023-05-15T10:53:14;20.30;99.90
16767;DHT22;8501;49.926;8.404;2023-05-15T10:55:40;20.40;99.90
16767;DHT22;8501;49.926;8.404;2023-05-15T10:58:08;20.30;99.90
16767;DHT22;8501;49.926;8.404;2023-05-15T11:00:40;20.50;99.90
16767;DHT22;8501;49.926;8.404;2023-05-15T11:03:06;20.60;99.90
16767;DHT22;8501;49.926;8.404;2023-05-15T11:06:10;20.80;99.90
16767;DHT22;8501;49.926;8.404;2023-05-15T11:08:41;20.90;99.90
16767;DHT22;8501;49.926;8.404;2023-05-15T11:12:15;20.80;99.90
16767;DHT22;8501;49.926;8.404;2023-05-15T11:14:16;20.90;99.90
16767;DHT22;8501;49.926;8.404;2023-05-15T11:22:18;21.00;99.90
16767;DHT22;8501;49.926;8.404;2023-05-15T11:27:32;21.20;99.90
16767;DHT22;8501;49.926;8.404;2023-05-15T11:37:56;21.10;99.90
16767;DHT22;8501;49.926;8.404;2023-05-15T11:43:03;21.40;99.90
16767;DHT22;8501;49.926;8.404;2023-05-15T11:45:32;21.60;99.90
16767;DHT22;8501;49.926;8.404;2023-05-15T11:48:03;21.50;99.90
16767;DHT22;8501;49.926;8.404;2023-05-15T11:50:30;21.50;99.90
16767;DHT22;8501;49.926;8.404;2023-05-15T11:52:57;21.60;99.90
16767;DHT22;8501;49.926;8.404;2023-05-15T11:55:23;21.70;99.90
16767;DHT22;8501;49.926;8.404;2023-05-15T11:57:49;21.80;99.90
16767;DHT22;8501;49.926;8.404;2023-05-15T12:00:15;21.90;99.90
16767;DHT22;8501;49.926;8.404;2023-05-15T12:02:41;21.80;99.90
16767;DHT22;8501;49.926;8.404;2023-05-15T12:05:07;22.00;99.90
16767;DHT22;8501;49.926;8.404;2023-05-15T12:07:43;22.00;99.90
16767;DHT22;8501;49.926;8.404;2023-05-15T12:10:10;22.10;99.90
16767;DHT22;8501;49.926;8.404;2023-05-15T12:12:39;22.20;99.90
16767;DHT22;8501;49.926;8.404;2023-05-15T12:15:11;22.20;99.90
16767;DHT22;8501;49.926;8.404;2023-05-15T12:17:38;22.10;99.90
16767;DHT22;8501;49.926;8.404;2023-05-15T12:20:06;22.20;99.90
16767;DHT22;8501;49.926;8.404;2023-05-15T12:22:37;22.30;99.90
16767;DHT22;8501;49.926;8.404;2023-05-15T12:25:07;22.20;99.90
16767;DHT22;8501;49.926;8.404;2023-05-15T12:27:34;22.40;99.90
16767;DHT22;8501;49.926;8.404;2023-05-15T12:30:01;22.40;99.90
16767;DHT22;8501;49.926;8.404;2023-05-15T12:32:29;22.50;99.90
16767;DHT22;8501;49.926;8.404;2023-05-15T12:34:55;22.50;99.90
16767;DHT22;8501;49.926;8.404;2023-05-15T12:37:21;22.40;99.90
16767;DHT22;8501;49.926;8.404;2023-05-15T12:39:58;22.60;99.90
16767;DHT22;8501;49.926;8.404;2023-05-15T12:42:24;22.60;99.90
16767;DHT22;8501;49.926;8.404;2023-05-15T12:44:54;22.50;99.90
16767;DHT22;8501;49.926;8.404;2023-05-15T12:47:25;22.50;99.90
16767;DHT22;8501;49.926;8.404;2023-05-15T12:49:57;22.40;99.90
16767;DHT22;8501;49.926;8.404;2023-05-15T12:52:22;22.40;99.90
16767;DHT22;8501;49.926;8.404;2023-05-15T12:54:49;22.30;99.90
16767;DHT22;8501;49.926;8.404;2023-05-15T12:57:15;22.30;99.90
16767;DHT22;8501;49.926;8.404;2023-05-15T12:59:40;22.40;99.90
16767;DHT22;8501;49.926;8.404;2023-05-15T13:02:10;22.50;99.90
16767;DHT22;8501;49.926;8.404;2023-05-15T13:04:36;22.70;99.90
16767;DHT22;8501;49.926;8.404;2023-05-15T13:07:02;22.70;99.90
16767;DHT22;8501;49.926;8.404;2023-05-15T13:09:28;22.80;99.90
16767;DHT22;8501;49.926;8.404;2023-05-15T13:11:55;22.60;99.90
16767;DHT22;8501;49.926;8.404;2023-05-15T13:14:21;22.60;99.90
16767;DHT22;8501;49.926;8.404;2023-05-15T13:16:47;22.60;99.90
16767;DHT22;8501;49.926;8.404;2023-05-15T13:19:13;22.50;99.90
16767;DHT22;8501;49.926;8.404;2023-05-15T13:21:40;22.50;99.90
16767;DHT22;8501;49.926;8.404;2023-05-15T13:24:05;22.50;99.90
16767;DHT22;8501;49.926;8.404;2023-05-15T13:26:34;22.50;99.90
16767;DHT22;8501;49.926;8.404;2023-05-15T13:28:59;22.60;99.90
16767;DHT22;8501;49.926;8.404;2023-05-15T13:31:26;22.80;99.90
16767;DHT22;8501;49.926;8.404;2023-05-15T13:33:51;23.00;99.90
16767;DHT22;8501;49.926;8.404;2023-05-15T13:36:17;23.30;99.90
16767;DHT22;8501;49.926;8.404;2023-05-15T13:38:43;23.40;99.90
16767;DHT22;8501;49.926;8.404;2023-05-15T13:41:08;23.50;99.90
16767;DHT22;8501;49.926;8.404;2023-05-15T13:43:34;23.50;99.90
16767;DHT22;8501;49.926;8.404;2023-05-15T13:46:00;23.50;99.90
16767;DHT22;8501;49.926;8.404;2023-05-15T13:48:25;23.50;99.90
16767;DHT22;8501;49.926;8.404;2023-05-15T13:50:51;23.40;99.90
16767;DHT22;8501;49.926;8.404;2023-05-15T13:53:16;23.60;99.90
16767;DHT22;8501;49.926;8.404;2023-05-15T13:55:45;23.70;99.90
16767;DHT22;8501;49.926;8.404;2023-05-15T13:58:11;23.90;99.90
16767;DHT22;8501;49.926;8.404;2023-05-15T14:00:38;23.80;99.90
16767;DHT22;8501;49.926;8.404;2023-05-15T14:03:04;23.50;99.90
16767;DHT22;8501;49.926;8.404;2023-05-15T14:05:30;23.30;99.90
16767;DHT22;8501;49.926;8.404;2023-05-15T14:07:57;23.10;99.90
16767;DHT22;8501;49.926;8.404;2023-05-15T14:10:22;22.90;99.90
16767;DHT22;8501;49.926;8.404;2023-05-15T14:12:48;22.80;99.90
16767;DHT22;8501;49.926;8.404;2023-05-15T14:15:14;22.70;99.90
16767;DHT22;8501;49.926;8.404;2023-05-15T14:17:40;22.90;99.90
16767;DHT22;8501;49.926;8.404;2023-05-15T14:20:08;22.90;99.90
16767;DHT22;8501;49.926;8.404;2023-05-15T14:22:37;22.80;99.90
16767;DHT22;8501;49.926;8.404;2023-05-15T14:25:03;22.60;99.90
16767;DHT22;8501;49.926;8.404;2023-05-15T14:27:33;22.50;99.90
16767;DHT22;8501;49.926;8.404;2023-05-15T14:29:59;22.50;99.90
16767;DHT22;8501;49.926;8.404;2023-05-15T14:32:25;22.40;99.90
16767;DHT22;8501;49.926;8.404;2023-05-15T14:34:51;22.30;99.90
16767;DHT22;8501;49.926;8.404;2023-05-15T14:37:17;22.60;99.90
16767;DHT22;8501;49.926;8.404;2023-05-15T14:39:43;22.80;99.90
16767;DHT22;8501;49.926;8.404;2023-05-15T14:42:09;23.00;99.90
16767;DHT22;8501;49.926;8.404;2023-05-15T14:44:35;22.90;99.90
16767;DHT22;8501;49.926;8.404;2023-05-15T14:47:08;23.40;99.90
16767;DHT22;8501;49.926;8.404;2023-05-15T14:49:35;23.80;99.90
16767;DHT22;8501;49.926;8.404;2023-05-15T14:52:01;23.90;99.90
16767;DHT22;8501;49.926;8.404;2023-05-15T14:54:27;23.60;99.90
16767;DHT22;8501;49.926;8.404;2023-05-15T14:56:53;23.30;99.90
16767;DHT22;8501;49.926;8.404;2023-05-15T14:59:19;23.20;99.90
16767;DHT22;8501;49.926;8.404;2023-05-15T15:01:44;23.10;99.90
16767;DHT22;8501;49.926;8.404;2023-05-15T15:04:10;23.40;99.90
16767;DHT22;8501;49.926;8.404;2023-05-15T15:06:36;23.80;99.90
16767;DHT22;8501;49.926;8.404;2023-05-15T15:09:02;24.00;99.90
16767;DHT22;8501;49.926;8.404;2023-05-15T15:11:27;23.90;99.90
16767;DHT22;8501;49.926;8.404;2023-05-15T15:13:53;23.80;99.90
16767;DHT22;8501;49.926;8.404;2023-05-15T15:16:18;23.80;99.90
16767;DHT22;8501;49.926;8.404;2023-05-15T15:18:44;23.40;99.90
16767;DHT22;8501;49.926;8.404;2023-05-15T15:21:10;23.20;99.90
16767;DHT22;8501;49.926;8.404;2023-05-15T15:23:36;22.80;99.90
16767;DHT22;8501;49.926;8.404;2023-05-15T15:26:02;22.60;99.90
16767;DHT22;8501;49.926;8.404;2023-05-15T15:28:28;22.50;99.90
16767;DHT22;8501;49.926;8.404;2023-05-15T15:31:00;22.40;99.90
16767;DHT22;8501;49.926;8.404;2023-05-15T15:33:26;22.30;99.90
16767;DHT22;8501;49.926;8.404;2023-05-15T15:35:52;22.20;99.90
16767;DHT22;8501;49.926;8.404;2023-05-15T15:38:17;22.20;99.90
16767;DHT22;8501;49.926;8.404;2023-05-15T15:40:43;22.00;99.90
16767;DHT22;8501;49.926;8.404;2023-05-15T15:43:08;22.00;99.90
16767;DHT22;8501;49.926;8.404;2023-05-15T15:45:34;21.90;99.90
16767;DHT22;8501;49.926;8.404;2023-05-15T15:48:00;21.90;99.90
16767;DHT22;8501;49.926;8.404;2023-05-15T15:50:25;22.00;99.90
16767;DHT22;8501;49.926;8.404;2023-05-15T15:52:51;21.90;99.90
16767;DHT22;8501;49.926;8.404;2023-05-15T15:55:16;21.90;99.90
16767;DHT22;8501;49.926;8.404;2023-05-15T15:57:42;21.90;99.90
16767;DHT22;8501;49.926;8.404;2023-05-15T16:00:08;21.80;99.90
16767;DHT22;8501;49.926;8.404;2023-05-15T16:02:34;21.70;99.90
16767;DHT22;8501;49.926;8.404;2023-05-15T16:05:02;21.60;99.90
16767;DHT22;8501;49.926;8.404;2023-05-15T16:07:27;21.70;99.90
16767;DHT22;8501;49.926;8.404;2023-05-15T16:09:53;21.70;99.90
16767;DHT22;8501;49.926;8.404;2023-05-15T16:12:19;21.70;99.90
16767;DHT22;8501;49.926;8.404;2023-05-15T16:14:45;21.80;99.90
16767;DHT22;8501;49.926;8.404;2023-05-15T16:17:10;21.80;99.90
16767;DHT22;8501;49.926;8.404;2023-05-15T16:19:36;21.80;99.90
16767;DHT22;8501;49.926;8.404;2023-05-15T16:22:01;21.70;99.90